createdAt,value
2022-09-18T00:00:14.143Z,1.73
2022-09-18T00:02:40.525Z,2.10
2022-09-18T00:05:07.310Z,2.27
2022-09-18T00:07:33.582Z,2.00
2022-09-18T00:09:59.896Z,2.70
2022-09-18T00:12:26.164Z,2.37
2022-09-18T00:14:52.583Z,2.20
2022-09-18T00:17:18.921Z,2.90
2022-09-18T00:19:45.185Z,2.03
2022-09-18T00:22:11.540Z,2.30
2022-09-18T00:24:37.883Z,2.73
2022-09-18T00:27:04.308Z,2.00
2022-09-18T00:29:30.695Z,2.37
2022-09-18T00:31:57.087Z,2.00
2022-09-18T00:34:23.457Z,2.50
2022-09-18T00:36:50.371Z,1.93
2022-09-18T00:39:16.877Z,2.27
2022-09-18T00:41:44.280Z,2.63
2022-09-18T00:44:29.381Z,2.50
2022-09-18T00:47:01.003Z,2.33
2022-09-18T00:49:28.004Z,1.90
2022-09-18T00:51:58.564Z,2.57
2022-09-18T00:54:34.193Z,2.70
2022-09-18T00:57:02.704Z,2.57
2022-09-18T00:59:31.890Z,2.40
2022-09-18T01:02:00.097Z,2.20
2022-09-18T01:04:27.022Z,2.00
2022-09-18T01:07:29.022Z,2.30
2022-09-18T01:09:58.284Z,2.33
2022-09-18T01:12:24.525Z,2.37
2022-09-18T01:15:00.887Z,2.13
2022-09-18T01:17:32.900Z,2.17
2022-09-18T01:20:06.492Z,2.00
2022-09-18T01:22:51.319Z,2.30
2022-09-18T01:25:26.763Z,1.80
2022-09-18T01:28:09.721Z,2.00
2022-09-18T01:30:38.831Z,1.87
2022-09-18T01:33:07.779Z,2.10
2022-09-18T01:35:43.563Z,2.33
2022-09-18T01:38:23.919Z,2.73
2022-09-18T01:41:03.246Z,1.70
2022-09-18T01:43:31.742Z,1.90
2022-09-18T01:46:04.318Z,2.17
2022-09-18T01:48:50.346Z,2.00
2022-09-18T01:51:22.123Z,2.57
2022-09-18T01:53:58.169Z,2.23
2022-09-18T01:56:30.858Z,2.00
2022-09-18T01:59:01.870Z,2.10
2022-09-18T02:01:40.607Z,2.20
2022-09-18T02:04:19.095Z,1.70
2022-09-18T02:06:59.432Z,1.80
2022-09-18T02:09:27.317Z,2.40
2022-09-18T02:11:56.405Z,2.27
2022-09-18T02:14:38.351Z,2.00
2022-09-18T02:17:28.896Z,2.27
2022-09-18T02:20:20.476Z,1.80
2022-09-18T02:22:50.881Z,2.30
2022-09-18T02:25:25.189Z,2.23
2022-09-18T02:27:51.761Z,2.00
2022-09-18T02:30:18.409Z,2.07
2022-09-18T02:32:45.066Z,2.60
2022-09-18T02:35:11.663Z,2.30
2022-09-18T02:38:04.454Z,2.50
2022-09-18T02:40:38.056Z,2.40
2022-09-18T02:43:20.685Z,2.57
2022-09-18T02:46:11.487Z,1.80
2022-09-18T02:48:43.963Z,1.50
2022-09-18T02:51:31.689Z,2.20
2022-09-18T02:54:13.578Z,2.30
2022-09-18T02:56:53.639Z,2.83
2022-09-18T02:59:47.410Z,1.97
2022-09-18T03:02:20.189Z,3.00
2022-09-18T03:04:46.813Z,2.90
2022-09-18T03:07:33.463Z,2.43
2022-09-18T03:09:59.981Z,2.67
2022-09-18T03:12:26.334Z,3.77
2022-09-18T03:14:52.605Z,3.00
2022-09-18T03:17:18.959Z,2.50
2022-09-18T03:19:45.778Z,2.90
2022-09-18T03:22:13.625Z,2.97
2022-09-18T03:24:41.522Z,2.63
2022-09-18T03:27:07.913Z,2.53
2022-09-18T03:29:35.262Z,2.60
2022-09-18T03:32:02.859Z,2.93
2022-09-18T03:34:35.133Z,2.70
2022-09-18T03:37:01.525Z,2.63
2022-09-18T03:39:27.902Z,2.93
2022-09-18T03:41:54.331Z,3.10
2022-09-18T03:44:21.165Z,2.97
2022-09-18T03:46:47.621Z,3.10
2022-09-18T03:49:14.097Z,2.73
2022-09-18T03:51:41.191Z,3.13
2022-09-18T03:54:07.965Z,2.47
2022-09-18T03:56:42.231Z,2.50
2022-09-18T03:59:15.733Z,2.63
2022-09-18T04:02:02.392Z,2.37
2022-09-18T04:04:48.954Z,3.17
2022-09-18T04:07:47.314Z,3.20
2022-09-18T04:10:42.825Z,2.70
2022-09-18T04:13:09.249Z,3.00
2022-09-18T04:15:36.643Z,2.80
2022-09-18T04:18:03.115Z,3.13
2022-09-18T04:20:29.515Z,3.73
2022-09-18T04:22:57.746Z,3.10
2022-09-18T04:25:24.032Z,2.90
2022-09-18T04:27:50.344Z,2.63
2022-09-18T04:30:18.217Z,2.83
2022-09-18T04:32:45.577Z,2.60
2022-09-18T04:35:12.201Z,2.40
2022-09-18T04:37:38.801Z,2.60
2022-09-18T04:40:06.492Z,2.77
2022-09-18T04:42:33.788Z,2.57
2022-09-18T04:45:00.804Z,2.57
2022-09-18T04:47:27.142Z,1.90
2022-09-18T04:49:53.810Z,2.63
2022-09-18T04:52:20.192Z,2.60
2022-09-18T04:54:46.732Z,2.33
2022-09-18T04:57:13.454Z,2.40
2022-09-18T04:59:43.304Z,1.80
2022-09-18T05:02:09.924Z,1.90
2022-09-18T05:04:36.320Z,1.73
2022-09-18T05:07:12.863Z,1.90
2022-09-18T05:09:39.281Z,2.20
2022-09-18T05:12:06.908Z,2.03
2022-09-18T05:14:35.677Z,1.60
2022-09-18T05:17:03.970Z,1.90
2022-09-18T05:19:38.219Z,2.50
2022-09-18T05:22:11.162Z,2.33
2022-09-18T05:24:41.852Z,2.33
2022-09-18T05:27:08.686Z,2.07
2022-09-18T05:29:35.612Z,2.23
2022-09-18T05:32:09.936Z,2.93
2022-09-18T05:34:37.134Z,2.50
2022-09-18T05:37:03.525Z,2.63
2022-09-18T05:39:29.912Z,1.93
2022-09-18T05:41:58.597Z,3.27
2022-09-18T05:44:24.985Z,2.93
2022-09-18T05:46:52.227Z,3.77
2022-09-18T05:49:18.711Z,4.00
2022-09-18T05:51:46.269Z,4.30
2022-09-18T05:54:14.886Z,4.87
2022-09-18T05:56:48.024Z,5.43
2022-09-18T05:59:14.877Z,5.00
2022-09-18T06:01:46.983Z,4.80
2022-09-18T06:04:13.714Z,5.40
2022-09-18T06:06:45.588Z,4.90
2022-09-18T06:09:14.056Z,5.20
2022-09-18T06:11:40.390Z,4.20
2022-09-18T06:14:06.789Z,4.27
2022-09-18T06:16:36.463Z,4.77
2022-09-18T06:19:07.115Z,3.80
2022-09-18T06:21:33.381Z,3.77
2022-09-18T06:24:00.305Z,4.00
2022-09-18T06:26:35.497Z,3.57
2022-09-18T06:29:02.083Z,3.77
2022-09-18T06:31:34.703Z,4.10
2022-09-18T06:34:06.902Z,4.57
2022-09-18T06:36:33.283Z,4.57
2022-09-18T06:39:18.112Z,4.47
2022-09-18T06:41:46.814Z,4.03
2022-09-18T06:44:23.411Z,4.03
2022-09-18T06:47:00.883Z,3.93
2022-09-18T06:49:34.518Z,4.10
2022-09-18T06:52:03.032Z,3.20
2022-09-18T06:54:30.573Z,2.77
2022-09-18T06:56:57.447Z,2.70
2022-09-18T06:59:23.978Z,3.07
2022-09-18T07:01:51.492Z,2.97
2022-09-18T07:04:26.001Z,2.70
2022-09-18T07:06:52.325Z,2.40
2022-09-18T07:09:18.808Z,2.50
2022-09-18T07:12:18.133Z,2.00
2022-09-18T07:14:48.174Z,2.17
2022-09-18T07:17:18.594Z,2.40
2022-09-18T07:19:47.783Z,2.00
2022-09-18T07:22:16.356Z,2.90
2022-09-18T07:24:46.203Z,3.30
2022-09-18T07:27:13.142Z,3.30
2022-09-18T07:29:41.821Z,3.37
2022-09-18T07:32:09.097Z,2.80
2022-09-18T07:34:36.779Z,3.47
2022-09-18T07:37:03.466Z,2.63
2022-09-18T07:39:30.319Z,2.83
2022-09-18T07:42:15.053Z,2.60
2022-09-18T07:44:48.576Z,2.23
2022-09-18T07:47:15.266Z,2.50
2022-09-18T07:49:42.626Z,1.77
2022-09-18T07:52:10.459Z,2.10
2022-09-18T07:54:50.876Z,1.50
2022-09-18T07:57:26.282Z,1.80
2022-09-18T08:00:07.569Z,1.33
2022-09-18T08:02:42.033Z,1.40
2022-09-18T08:05:10.888Z,1.60
2022-09-18T08:07:42.874Z,1.30
2022-09-18T08:10:30.080Z,1.57
2022-09-18T08:13:13.029Z,1.07
2022-09-18T08:15:59.995Z,1.37
2022-09-18T08:18:46.683Z,1.10
2022-09-18T08:21:39.348Z,1.30
2022-09-18T08:24:09.380Z,1.20
2022-09-18T08:26:38.514Z,1.63
2022-09-18T08:29:06.428Z,1.80
2022-09-18T08:31:33.489Z,1.53
2022-09-18T08:34:01.553Z,1.50
2022-09-18T08:36:28.049Z,1.77
2022-09-18T08:39:00.661Z,1.50
2022-09-18T08:41:59.481Z,1.97
2022-09-18T08:44:29.846Z,1.60
2022-09-18T08:47:04.277Z,2.33
2022-09-18T08:49:37.326Z,1.60
2022-09-18T08:52:17.588Z,1.70
2022-09-18T08:54:55.438Z,1.73
2022-09-18T08:57:49.611Z,2.17
2022-09-18T09:00:34.651Z,1.93
2022-09-18T09:03:33.862Z,2.20
2022-09-18T09:06:38.510Z,2.47
2022-09-18T09:09:31.732Z,1.93
2022-09-18T09:12:26.405Z,2.30
2022-09-18T09:15:12.857Z,2.30
2022-09-18T09:17:46.764Z,1.87
2022-09-18T09:20:25.368Z,2.03
2022-09-18T09:23:04.434Z,2.83
2022-09-18T09:25:52.261Z,2.23
2022-09-18T09:28:54.323Z,1.40
2022-09-18T09:31:54.941Z,1.97
2022-09-18T09:34:52.087Z,2.27
2022-09-18T09:37:36.484Z,1.63
2022-09-18T09:40:11.962Z,1.20
2022-09-18T09:42:55.761Z,1.70
2022-09-18T09:45:33.210Z,2.27
2022-09-18T09:48:12.061Z,2.13
2022-09-18T09:50:51.283Z,1.50
2022-09-18T09:53:18.656Z,2.20
2022-09-18T09:56:01.381Z,2.00
2022-09-18T09:58:40.415Z,1.80
2022-09-18T10:01:15.322Z,1.60
2022-09-18T10:03:55.171Z,1.77
2022-09-18T10:06:31.029Z,1.50
2022-09-18T10:09:08.096Z,1.97
2022-09-18T10:11:35.571Z,1.87
2022-09-18T10:14:15.153Z,2.70
2022-09-18T10:16:53.986Z,3.50
2022-09-18T10:19:21.995Z,3.67
2022-09-18T10:21:52.995Z,3.70
2022-09-18T10:24:28.111Z,4.27
2022-09-18T10:27:00.492Z,3.17
2022-09-18T10:29:32.685Z,3.33
2022-09-18T10:32:03.641Z,2.30
2022-09-18T10:34:49.467Z,2.20
2022-09-18T10:37:28.394Z,1.53
2022-09-18T10:40:01.313Z,1.70
2022-09-18T10:42:32.660Z,1.30
2022-09-18T10:45:27.801Z,1.47
2022-09-18T10:48:16.524Z,1.07
2022-09-18T10:50:55.952Z,1.10
2022-09-18T10:53:34.157Z,1.10
2022-09-18T10:56:19.911Z,0.87
2022-09-18T10:58:47.749Z,1.37
2022-09-18T11:01:14.703Z,1.00
2022-09-18T11:03:59.246Z,1.30
2022-09-18T11:06:29.778Z,1.20
2022-09-18T11:09:02.152Z,1.20
2022-09-18T11:11:33.779Z,1.10
2022-09-18T11:14:18.765Z,1.50
2022-09-18T11:17:01.497Z,1.20
2022-09-18T11:19:35.998Z,1.20
2022-09-18T11:22:27.122Z,1.77
2022-09-18T11:25:06.418Z,1.37
2022-09-18T11:27:45.595Z,1.33
2022-09-18T11:30:20.887Z,0.90
2022-09-18T11:32:48.370Z,1.00
2022-09-18T11:35:19.595Z,1.47
2022-09-18T11:37:53.292Z,1.53
2022-09-18T11:40:29.696Z,1.53
2022-09-18T11:42:56.702Z,1.23
2022-09-18T11:45:36.186Z,1.83
2022-09-18T11:48:21.532Z,1.70
2022-09-18T11:50:51.210Z,1.73
2022-09-18T11:53:23.735Z,1.93
2022-09-18T11:56:14.550Z,2.60
2022-09-18T11:58:47.812Z,3.30
2022-09-18T12:01:32.598Z,2.00
2022-09-18T12:04:17.977Z,2.00
2022-09-18T12:07:05.743Z,1.80
2022-09-18T12:09:57.053Z,1.73
2022-09-18T12:12:31.287Z,1.60
2022-09-18T12:15:05.250Z,1.90
2022-09-18T12:17:54.306Z,1.87
2022-09-18T12:20:37.836Z,1.43
2022-09-18T12:23:13.164Z,1.70
2022-09-18T12:26:10.181Z,1.77
2022-09-18T12:29:21.495Z,1.43
2022-09-18T12:32:08.228Z,1.93
2022-09-18T12:34:40.102Z,1.50
2022-09-18T12:37:09.141Z,1.50
2022-09-18T12:40:07.330Z,1.87
2022-09-18T12:42:44.011Z,1.80
2022-09-18T12:45:27.672Z,1.13
2022-09-18T12:47:57.111Z,1.03
2022-09-18T12:50:36.974Z,1.10
2022-09-18T12:53:13.956Z,1.27
2022-09-18T12:55:53.626Z,1.20
2022-09-18T12:58:40.253Z,1.17
2022-09-18T13:01:29.898Z,1.20
2022-09-18T13:04:02.393Z,0.90
2022-09-18T13:06:41.238Z,1.13
2022-09-18T13:09:21.668Z,1.30
2022-09-18T13:11:56.158Z,1.10
2022-09-18T13:14:31.329Z,1.80
2022-09-18T13:17:14.380Z,1.00
2022-09-18T13:20:16.162Z,1.10
2022-09-18T13:22:47.526Z,1.47
2022-09-18T13:25:26.900Z,1.20
2022-09-18T13:27:54.542Z,1.30
2022-09-18T13:30:25.647Z,1.40
2022-09-18T13:32:53.366Z,1.30
2022-09-18T13:35:23.977Z,0.93
2022-09-18T13:38:09.437Z,1.00
2022-09-18T13:40:37.875Z,1.37
2022-09-18T13:43:37.578Z,1.10
2022-09-18T13:46:07.051Z,1.53
2022-09-18T13:48:39.754Z,1.13
2022-09-18T13:51:08.655Z,1.00
2022-09-18T13:53:44.022Z,1.20
2022-09-18T13:56:15.887Z,1.63
2022-09-18T13:58:52.611Z,1.20
2022-09-18T14:01:58.934Z,1.13
2022-09-18T14:04:40.672Z,1.30
2022-09-18T14:07:16.091Z,1.00
2022-09-18T14:09:53.123Z,0.90
2022-09-18T14:12:20.835Z,1.07
2022-09-18T14:15:00.361Z,1.20
2022-09-18T14:17:27.121Z,1.30
2022-09-18T14:20:01.345Z,1.87
2022-09-18T14:22:34.222Z,1.40
2022-09-18T14:25:03.376Z,1.40
2022-09-18T14:27:33.077Z,1.80
2022-09-18T14:30:04.372Z,1.70
2022-09-18T14:32:31.471Z,1.73
2022-09-18T14:35:22.687Z,1.97
2022-09-18T14:37:49.065Z,1.40
2022-09-18T14:40:23.903Z,1.63
2022-09-18T14:42:50.405Z,1.27
2022-09-18T14:45:27.303Z,1.40
2022-09-18T14:47:54.234Z,1.30
2022-09-18T14:50:36.757Z,1.73
2022-09-18T14:53:24.306Z,1.40
2022-09-18T14:56:06.436Z,1.63
2022-09-18T14:58:37.568Z,1.47
2022-09-18T15:01:07.381Z,1.37
2022-09-18T15:03:38.856Z,1.50
2022-09-18T15:06:07.872Z,1.43
2022-09-18T15:08:34.718Z,1.47
2022-09-18T15:11:01.111Z,1.70
2022-09-18T15:13:29.766Z,1.30
2022-09-18T15:16:00.655Z,1.53
2022-09-18T15:18:30.263Z,1.20
2022-09-18T15:20:59.377Z,1.43
2022-09-18T15:23:32.749Z,1.40
2022-09-18T15:26:05.353Z,1.40
2022-09-18T15:28:34.651Z,1.23
2022-09-18T15:31:04.731Z,1.50
2022-09-18T15:33:34.953Z,1.10
2022-09-18T15:36:04.684Z,1.57
2022-09-18T15:38:42.994Z,1.77
2022-09-18T15:41:29.666Z,1.03
2022-09-18T15:43:56.203Z,1.43
2022-09-18T15:46:34.487Z,1.53
2022-09-18T15:49:03.083Z,1.53
2022-09-18T15:51:32.305Z,1.40
2022-09-18T15:54:22.881Z,1.27
2022-09-18T15:56:55.330Z,1.40
2022-09-18T15:59:40.491Z,1.27
2022-09-18T16:02:35.942Z,1.40
2022-09-18T16:05:08.789Z,1.20
2022-09-18T16:07:37.482Z,1.13
2022-09-18T16:10:04.360Z,1.27
2022-09-18T16:12:30.972Z,1.20
2022-09-18T16:15:18.135Z,1.27
2022-09-18T16:17:44.450Z,1.30
2022-09-18T16:20:24.578Z,1.40
2022-09-18T16:22:54.246Z,1.47
2022-09-18T16:25:24.986Z,1.00
2022-09-18T16:27:55.904Z,1.40
2022-09-18T16:30:26.638Z,1.03
2022-09-18T16:33:17.166Z,1.20
2022-09-18T16:35:43.595Z,1.27
2022-09-18T16:38:10.011Z,1.23
2022-09-18T16:40:36.640Z,1.30
2022-09-18T16:43:03.172Z,1.10
2022-09-18T16:45:29.449Z,1.17
2022-09-18T16:48:00.446Z,1.13
2022-09-18T16:50:27.451Z,1.37
2022-09-18T16:52:54.818Z,1.30
2022-09-18T16:55:22.985Z,1.10
2022-09-18T16:57:51.358Z,2.67
2022-09-18T17:00:18.102Z,2.30
2022-09-18T17:02:44.640Z,2.50
2022-09-18T17:05:11.005Z,4.00
2022-09-18T17:07:37.655Z,2.27
2022-09-18T17:10:04.429Z,2.13
2022-09-18T17:12:30.895Z,2.13
2022-09-18T17:14:57.177Z,2.00
2022-09-18T17:17:23.612Z,2.00
2022-09-18T17:19:49.899Z,2.40
2022-09-18T17:22:18.990Z,2.03
2022-09-18T17:24:47.368Z,1.90
2022-09-18T17:27:13.806Z,1.10
2022-09-18T17:29:40.242Z,1.50
2022-09-18T17:32:07.558Z,1.47
2022-09-18T17:34:34.263Z,1.10
2022-09-18T17:37:01.920Z,1.20
2022-09-18T17:39:28.562Z,1.60
2022-09-18T17:41:55.627Z,1.40
2022-09-18T17:44:24.154Z,1.70
2022-09-18T17:46:52.618Z,2.13
2022-09-18T17:49:19.937Z,2.23
2022-09-18T17:51:46.565Z,2.53
2022-09-18T17:54:12.904Z,1.73
2022-09-18T17:56:39.530Z,1.50
2022-09-18T17:59:08.867Z,2.17
2022-09-18T18:01:37.411Z,1.90
2022-09-18T18:04:05.366Z,1.60
2022-09-18T18:06:32.307Z,1.90
2022-09-18T18:08:58.957Z,1.70
2022-09-18T18:11:25.846Z,1.60
2022-09-18T18:13:54.208Z,1.80
2022-09-18T18:16:23.297Z,2.07
2022-09-18T18:18:54.885Z,2.13
2022-09-18T18:21:22.401Z,2.30
2022-09-18T18:23:49.210Z,1.80
2022-09-18T18:26:15.670Z,2.10
2022-09-18T18:28:45.070Z,2.20
2022-09-18T18:31:12.489Z,2.77
2022-09-18T18:33:41.071Z,2.23
2022-09-18T18:36:14.789Z,2.20
2022-09-18T18:38:44.465Z,2.37
2022-09-18T18:41:11.432Z,2.20
2022-09-18T18:43:40.760Z,1.70
2022-09-18T18:46:09.309Z,1.77
2022-09-18T18:48:36.763Z,2.50
2022-09-18T18:51:06.896Z,2.27
2022-09-18T18:53:35.060Z,2.30
2022-09-18T18:56:10.028Z,2.40
2022-09-18T18:58:37.341Z,2.50
2022-09-18T19:01:05.763Z,2.27
2022-09-18T19:03:36.004Z,1.93
2022-09-18T19:06:04.669Z,2.10
2022-09-18T19:08:31.098Z,2.93
2022-09-18T19:10:58.955Z,2.87
2022-09-18T19:13:25.607Z,2.10
2022-09-18T19:15:52.392Z,2.70
2022-09-18T19:18:19.177Z,2.37
2022-09-18T19:20:49.543Z,2.30
2022-09-18T19:23:16.741Z,2.33
2022-09-18T19:25:44.110Z,4.23
2022-09-18T19:28:11.559Z,4.63
2022-09-18T19:30:41.049Z,3.10
2022-09-18T19:33:13.401Z,5.37
2022-09-18T19:35:39.756Z,3.53
2022-09-18T19:38:06.171Z,3.30
2022-09-18T19:40:35.238Z,6.33
2022-09-18T19:43:08.852Z,4.60
2022-09-18T19:45:37.181Z,4.27
2022-09-18T19:48:07.242Z,2.90
2022-09-18T19:50:38.157Z,3.10
2022-09-18T19:53:04.556Z,2.93
2022-09-18T19:55:30.873Z,3.00
2022-09-18T19:57:59.184Z,3.00
2022-09-18T20:00:26.207Z,3.00
2022-09-18T20:02:52.783Z,3.43
2022-09-18T20:05:19.110Z,3.20
2022-09-18T20:07:48.911Z,3.23
2022-09-18T20:10:15.225Z,2.80
2022-09-18T20:12:42.050Z,2.93
2022-09-18T20:15:09.854Z,2.87
2022-09-18T20:17:36.997Z,2.73
2022-09-18T20:20:08.729Z,3.50
2022-09-18T20:22:38.228Z,3.10
2022-09-18T20:25:04.837Z,3.17
2022-09-18T20:27:35.877Z,2.93
2022-09-18T20:30:03.763Z,3.23
2022-09-18T20:32:30.058Z,3.00
2022-09-18T20:34:56.493Z,2.90
2022-09-18T20:37:24.331Z,2.60
2022-09-18T20:39:50.762Z,2.80
2022-09-18T20:42:17.165Z,2.60
2022-09-18T20:44:43.489Z,3.30
2022-09-18T20:47:09.839Z,2.83
2022-09-18T20:49:36.619Z,3.10
2022-09-18T20:52:03.436Z,3.33
2022-09-18T20:54:30.392Z,3.00
2022-09-18T20:56:57.605Z,2.80
2022-09-18T20:59:24.786Z,4.80
2022-09-18T21:01:51.861Z,3.07
2022-09-18T21:04:19.669Z,2.90
2022-09-18T21:06:49.061Z,2.83
2022-09-18T21:09:15.585Z,2.93
2022-09-18T21:11:42.828Z,2.83
2022-09-18T21:14:11.921Z,3.03
2022-09-18T21:16:48.885Z,2.73
2022-09-18T21:19:17.030Z,3.10
2022-09-18T21:21:43.343Z,2.93
2022-09-18T21:24:10.007Z,2.90
2022-09-18T21:26:39.173Z,3.03
2022-09-18T21:29:22.890Z,3.07
2022-09-18T21:31:52.536Z,3.07
2022-09-18T21:34:30.897Z,3.23
2022-09-18T21:36:58.428Z,3.70
2022-09-18T21:39:28.047Z,2.90
2022-09-18T21:41:55.912Z,2.80
2022-09-18T21:44:27.017Z,3.17
2022-09-18T21:47:01.818Z,3.10
2022-09-18T21:49:29.186Z,2.57
2022-09-18T21:51:58.768Z,3.00
2022-09-18T21:54:26.069Z,2.57
2022-09-18T21:56:52.989Z,2.60
2022-09-18T21:59:21.072Z,2.73
2022-09-18T22:01:48.737Z,2.10
2022-09-18T22:04:15.111Z,2.37
2022-09-18T22:06:43.975Z,2.97
2022-09-18T22:09:14.836Z,2.60
2022-09-18T22:11:42.519Z,3.10
2022-09-18T22:14:12.124Z,2.67
2022-09-18T22:16:38.607Z,2.70
2022-09-18T22:19:08.242Z,3.00
2022-09-18T22:21:37.724Z,2.60
2022-09-18T22:24:07.214Z,1.93
2022-09-18T22:26:36.019Z,2.43
2022-09-18T22:29:07.395Z,1.90
2022-09-18T22:31:37.044Z,2.07
2022-09-18T22:34:03.483Z,2.77
2022-09-18T22:36:29.901Z,2.20
2022-09-18T22:38:56.571Z,2.60
2022-09-18T22:41:22.966Z,2.73
2022-09-18T22:43:54.476Z,3.13
2022-09-18T22:46:21.846Z,2.90
2022-09-18T22:48:48.457Z,2.77
2022-09-18T22:51:24.240Z,2.27
2022-09-18T22:53:54.141Z,2.97
2022-09-18T22:56:21.011Z,2.90
2022-09-18T22:58:47.527Z,2.53
2022-09-18T23:01:16.645Z,2.63
2022-09-18T23:03:42.951Z,2.47
2022-09-18T23:06:09.791Z,2.97
2022-09-18T23:08:37.421Z,2.63
2022-09-18T23:11:11.475Z,2.93
2022-09-18T23:13:38.603Z,2.47
2022-09-18T23:16:11.589Z,2.30
2022-09-18T23:18:38.182Z,2.10
2022-09-18T23:21:13.656Z,2.10
2022-09-18T23:23:42.566Z,1.90
2022-09-18T23:26:12.272Z,2.10
2022-09-18T23:28:41.024Z,2.50
2022-09-18T23:31:10.609Z,2.50
2022-09-18T23:33:38.204Z,2.17
2022-09-18T23:36:11.543Z,2.03
2022-09-18T23:38:38.389Z,2.10
2022-09-18T23:41:06.615Z,2.60
2022-09-18T23:43:33.541Z,2.33
2022-09-18T23:45:59.969Z,2.37
2022-09-18T23:48:26.878Z,2.30
2022-09-18T23:50:53.669Z,2.37
2022-09-18T23:53:22.112Z,2.33
2022-09-18T23:55:48.895Z,2.77
2022-09-18T23:58:16.641Z,2.33
